• Join FlightAware (Why Join?)
  • Login
  • US Flag 
06:59AM EDT


 

Airport Tracker/Info


-or-


 

Live Flight TrackerFlight Track Log ✈ JZA7983 ✈ 19-Apr-2013 ✈ CYYZ - KCVG

Flight Track Log - Related Links

Times and Time Zones

All times are in EDT time to prevent confusion due to time zone crossing. See the JZA7983 flight status page for this flight to view local times or setup timezone preferences in your user account.

Time Position Orientation Groundspeed Altitude Reporting Facility
EDT Latitude Longitude Course Direction KTS MPH feet Rate Location/Type
06:42PM 43.6667 -79.6167 360° North 40 46 600  Level Toronto Center
06:43PM 43.6667 -79.6167 360° North 20 23 500  Descending Toronto Center
06:44PM 43.6833 -79.6167 360° North 20 23 600  Climbing Toronto Center
06:45PM 43.6833 -79.6167 360° North 10 12 600  Level Toronto Center
06:48PM 43.6833 -79.6167 36° Northeast 10 12 600 540 Level Toronto Center
06:49PM 43.6500 -79.6500 216° Southwest 120 138 2,900 2,520 Climbing Toronto Center
06:50PM 43.6333 -79.7000 245° Southwest 170 196 5,700 3,000 Climbing Toronto Center
06:51PM 43.5667 -79.7500 209° Southwest 230 265 8,900 2,820 Climbing Toronto Center
06:52PM 43.5000 -79.7667 190° South 240 276 11,400 2,940 Climbing Toronto Center
06:53PM 43.4500 -79.8000 206° Southwest 230 265 14,800 1,800 Climbing Toronto Center
06:54PM 43.4000 -79.8333 206° Southwest 220 253 15,100 1,020 Climbing Toronto Center
06:55PM 43.3500 -79.9000 224° Southwest 230 265 16,900 1,800 Climbing Toronto Center
06:56PM 43.3000 -79.9833 231° Southwest 250 288 18,700 1,800 Climbing Toronto Center
06:57PM 43.2500 -80.0500 224° Southwest 260 299 20,600 1,620 Climbing Toronto Center
06:58PM 43.2000 -80.1167 224° Southwest 260 299 22,000 1,380 Climbing Toronto Center
06:59PM 43.1500 -80.2000 231° Southwest 260 299 23,400 1,200 Climbing Toronto Center
07:00PM 43.1000 -80.2667 224° Southwest 270 311 24,400 960 Climbing Toronto Center
07:01PM 43.0500 -80.3333 224° Southwest 270 311 25,400 900 Climbing Toronto Center
07:02PM 43.0000 -80.4333 236° Southwest 270 311 26,200 660 Climbing Toronto Center
07:03PM 42.9500 -80.5000 224° Southwest 280 322 26,800 600 Climbing Toronto Center
07:04PM 42.9000 -80.5833 231° Southwest 280 322 27,400 540 Climbing Toronto Center
07:05PM 42.8500 -80.6500 224° Southwest 280 322 27,900 420 Climbing Toronto Center
07:05PM 42.8039 -80.7472 237° Southwest 287 330 28,300 480 Climbing Cleveland Center
07:06PM 42.7475 -80.8264 226° Southwest 293 337 28,900 660 Climbing Cleveland Center
07:07PM 42.6953 -80.8994 226° Southwest 282 325 29,700 780 Climbing Cleveland Center
07:08PM 42.6347 -80.9586 216° Southwest 282 325 30,500 780 Climbing Cleveland Center
07:09PM 42.5761 -81.0144 215° Southwest 270 311 31,300 660 Climbing Cleveland Center
07:10PM 42.5175 -81.0733 217° Southwest 270 311 31,900 300 Climbing Cleveland Center
07:11PM 42.4567 -81.1319 215° Southwest 270 311 32,000  Climbing Cleveland Center
07:12PM 42.4003 -81.1819 213° Southwest 270 311 32,000  Level Cleveland Center
07:13PM 42.3394 -81.2433 217° Southwest 275 316 32,000  Level Cleveland Center
07:14PM 42.2767 -81.3017 215° Southwest 275 316 32,000  Level Cleveland Center
07:15PM 42.2136 -81.3653 217° Southwest 275 316 32,000  Level Cleveland Center
07:16PM 42.1528 -81.4206 214° Southwest 275 316 32,000  Level Cleveland Center
07:17PM 42.0919 -81.4786 215° Southwest 275 316 32,000  Level Cleveland Center
07:18PM 42.0289 -81.5392 216° Southwest 275 316 32,000  Level Cleveland Center
07:19PM 41.9597 -81.6022 214° Southwest 275 316 32,000  Level Cleveland Center
07:20PM 41.8986 -81.6600 215° Southwest 275 316 32,000  Level Cleveland Center
07:21PM 41.8356 -81.7203 215° Southwest 275 316 32,000  Level Cleveland Center
07:22PM 41.7744 -81.7775 215° Southwest 275 316 32,000  Level Cleveland Center
07:23PM 41.7133 -81.8347 215° Southwest 270 311 32,000  Level Cleveland Center
07:24PM 41.6503 -81.8947 215° Southwest 270 311 32,000  Level Cleveland Center
07:25PM 41.5850 -81.9517 213° Southwest 270 311 32,000  Level Cleveland Center
07:26PM 41.5258 -82.0114 217° Southwest 270 311 32,000  Level Cleveland Center
07:27PM 41.4606 -82.0683 213° Southwest 270 311 32,000  Level Cleveland Center
07:28PM 41.3972 -82.1278 215° Southwest 275 316 32,000  Level Cleveland Center
07:29PM 41.3319 -82.1731 208° Southwest 275 316 32,000  Level Cleveland Center
07:31PM 41.1806 -82.2256 195° South 281 323 32,000  Level Indianapolis Center
07:33PM 41.1044 -82.2533 195° South 283 326 32,000  Level Indianapolis Center
07:34PM 41.0272 -82.2800 195° South 285 328 32,000  Level Indianapolis Center
07:35PM 40.9497 -82.3075 195° South 286 329 32,000  Level Indianapolis Center
07:36PM 40.8717 -82.3350 195° South 287 330 32,000  Level Indianapolis Center
07:37PM 40.7944 -82.3625 195° South 287 330 32,000  Level Indianapolis Center
07:38PM 40.7172 -82.3900 195° South 285 328 32,000  Level Indianapolis Center
07:39PM 40.6269 -82.4219 195° South 285 328 32,000  Level Indianapolis Center
07:40PM 40.5494 -82.4494 195° South 285 328 32,000  Level Indianapolis Center
07:41PM 40.4722 -82.4742 194° South 283 326 32,000  Level Indianapolis Center
07:42PM 40.3958 -82.5033 196° South 282 325 32,000 -360 Level Indianapolis Center
07:43PM 40.3169 -82.5317 195° South 289 333 31,300 -900 Descending Indianapolis Center
07:44PM 40.2361 -82.5617 196° South 295 339 30,200 -1,080 Descending Indianapolis Center
07:45PM 40.1519 -82.5906 195° South 307 353 29,200 -1,020 Descending Indianapolis Center
07:46PM 40.1042 -82.6883 237° Southwest 336 387 28,200 -1,020 Descending Indianapolis Center
07:47PM 40.0636 -82.7992 244° Southwest 337 388 27,200 -1,020 Descending Indianapolis Center
07:48PM 40.0197 -82.9050 242° Southwest 329 379 26,200 -1,020 Descending Indianapolis Center
07:49PM 39.9764 -83.0089 241° Southwest 324 373 25,200 -1,080 Descending Indianapolis Center
07:50PM 39.9250 -83.1294 241° Southwest 323 372 24,000 -1,080 Descending Indianapolis Center
07:51PM 39.8808 -83.2356 242° Southwest 327 376 23,000 -1,020 Descending Indianapolis Center
07:52PM 39.8358 -83.3419 241° Southwest 329 379 22,000 -1,080 Descending Indianapolis Center
07:53PM 39.7908 -83.4508 242° Southwest 330 380 20,900 -1,200 Descending Indianapolis Center
07:54PM 39.7442 -83.5589 241° Southwest 332 382 19,600 -1,380 Descending Indianapolis Center
07:55PM 39.6972 -83.6686 241° Southwest 341 392 18,100 -1,620 Descending Indianapolis Center
07:56PM 39.6489 -83.7814 241° Southwest 352 405 16,300 -1,860 Descending Indianapolis Center
07:57PM 39.6014 -83.8919 241° Southwest 348 400 14,300 -1,980 Descending Indianapolis Center
07:58PM 39.5389 -83.9847 229° Southwest 342 394 12,300 -1,620 Descending Indianapolis Center
07:59PM 39.4744 -84.0764 228° Southwest 341 392 11,000 -780 Descending Indianapolis Center
08:00PM 39.4114 -84.1636 227° Southwest 332 382 10,700 -660 Descending Indianapolis Center
08:01PM 39.3603 -84.2344 227° Southwest 283 326 9,700 -1,260 Descending Indianapolis Center
08:02PM 39.2947 -84.2714 204° Southwest 264 304 8,200 -1,560 Descending Indianapolis Center
08:03PM 39.2297 -84.2994 198° South 253 291 6,500 -1,500 Descending Indianapolis Center
08:04PM 39.1556 -84.3331 199° South 244 281 5,200 -1,260 Descending Indianapolis Center
08:05PM 39.1033 -84.3750 212° Southwest 229 264 4,000 -720 Descending Indianapolis Center
08:06PM 39.0667 -84.4333 231° Southwest 185 213 3,700 -240 Descending Cincinnati TRACON
08:08PM 39.0500 -84.4833 247° West 181 208 3,500 -600 Descending Cincinnati TRACON
08:09PM 39.0500 -84.5500 270° West 141 162 2,500 -840 Descending Cincinnati TRACON
08:10PM 39.0500 -84.5833 270° West 112 129 1,900 -720 Descending Cincinnati TRACON